Time;durP1;ratioP1;P1;durP2;ratioP2;P2;SDS_P1;SDS_P2;PMS_P1;PMS_P2;Temp;Humidity;BMP_temperature;BMP_pressure;BME280_temperature;BME280_humidity;BME280_pressure;Samples;Min_cycle;Max_cycle;Signal;HPM_P1;HPM_P2
2023/03/24 00:01:48;;;;;;;38.77;6.70;;;18.70;64.40;;;;;;5083250;28;20629;-90
2023/03/24 00:04:15;;;;;;;40.90;6.57;;;18.70;64.30;;;;;;5084555;28;20199;-91
2023/03/24 00:06:43;;;;;;;36.93;6.47;;;18.70;64.30;;;;;;5087770;28;20203;-91
2023/03/24 00:09:10;;;;;;;47.30;7.40;;;18.80;64.40;;;;;;5086452;28;20326;-90
2023/03/24 00:11:39;;;;;;;49.47;7.83;;;18.70;64.30;;;;;;5086906;28;20627;-91
2023/03/24 00:14:06;;;;;;;40.33;7.03;;;18.70;64.30;;;;;;5086912;28;20662;-91
2023/03/24 00:16:37;;;;;;;41.57;6.87;;;18.70;64.30;;;;;;5070757;28;20281;-91
2023/03/24 00:19:06;;;;;;;37.90;6.70;;;18.70;64.30;;;;;;5082509;28;20576;-91
2023/03/24 00:21:33;;;;;;;47.90;7.47;;;18.70;64.30;;;;;;5085543;28;20588;-91
2023/03/24 00:24:03;;;;;;;42.17;6.90;;;18.70;64.30;;;;;;5086052;28;20224;-91
2023/03/24 00:26:31;;;;;;;39.13;7.03;;;18.70;64.30;;;;;;5082339;28;20232;-91
2023/03/24 00:28:58;;;;;;;44.83;7.33;;;18.70;64.30;;;;;;5071922;28;20194;-91
2023/03/24 00:31:25;;;;;;;33.53;6.70;;;18.70;64.30;;;;;;5084251;28;20722;-91
2023/03/24 00:33:54;;;;;;;56.70;8.03;;;18.70;64.30;;;;;;5087623;28;20226;-91
2023/03/24 00:36:23;;;;;;;28.97;6.10;;;18.70;64.30;;;;;;5087765;28;20210;-91
2023/03/24 00:38:50;;;;;;;61.60;8.63;;;18.70;64.40;;;;;;5088020;28;20195;-91
2023/03/24 00:41:20;;;;;;;27.17;6.13;;;18.70;64.30;;;;;;5084999;28;20714;-90
2023/03/24 00:44:06;;;;;;;34.03;5.83;;;18.70;64.30;;;;;;5082119;28;20230;-92
2023/03/24 00:46:34;;;;;;;30.63;6.23;;;18.70;64.30;;;;;;5087455;28;20244;-91
2023/03/24 00:49:04;;;;;;;39.63;6.70;;;18.70;64.30;;;;;;5088209;28;20237;-91
2023/03/24 00:51:34;;;;;;;35.73;6.23;;;18.70;64.30;;;;;;5086581;28;20202;-91
2023/03/24 00:54:01;;;;;;;40.90;6.73;;;18.70;64.30;;;;;;5087211;28;20199;-91
2023/03/24 00:56:33;;;;;;;33.33;6.10;;;18.60;64.20;;;;;;5088869;28;20267;-92
2023/03/24 00:59:01;;;;;;;34.33;5.97;;;18.70;64.30;;;;;;5088637;28;20206;-91
2023/03/24 01:01:31;;;;;;;34.43;5.97;;;18.60;64.20;;;;;;5086181;28;20199;-91
2023/03/24 01:03:59;;;;;;;35.33;6.30;;;18.70;64.30;;;;;;5088105;28;20313;-91
2023/03/24 01:06:29;;;;;;;37.37;6.30;;;18.70;64.30;;;;;;5085008;28;20254;-91
2023/03/24 01:08:56;;;;;;;32.53;5.97;;;18.70;64.40;;;;;;5086633;28;20210;-91
2023/03/24 01:11:25;;;;;;;37.23;6.07;;;18.70;64.30;;;;;;5089136;28;20207;-91
2023/03/24 01:13:53;;;;;;;28.50;5.57;;;18.70;64.30;;;;;;5092890;28;20198;-91
2023/03/24 01:16:24;;;;;;;35.37;6.07;;;18.60;64.20;;;;;;5086755;28;20628;-90
2023/03/24 01:18:51;;;;;;;38.30;6.03;;;18.60;64.20;;;;;;5086659;28;20253;-91
2023/03/24 01:21:18;;;;;;;66.47;8.83;;;18.60;64.20;;;;;;5086299;28;20226;-90
2023/03/24 01:23:47;;;;;;;50.30;7.17;;;18.60;64.20;;;;;;5086987;28;20246;-91
2023/03/24 01:26:17;;;;;;;42.77;6.63;;;18.60;64.20;;;;;;5086003;28;20227;-91
2023/03/24 01:28:44;;;;;;;35.10;5.87;;;18.60;64.20;;;;;;5087727;28;20659;-91
2023/03/24 01:31:16;;;;;;;41.90;6.37;;;18.60;64.20;;;;;;5082348;28;20195;-91
2023/03/24 01:33:43;;;;;;;36.53;6.20;;;18.60;64.20;;;;;;5089709;28;20199;-91
2023/03/24 01:36:10;;;;;;;55.07;7.30;;;18.60;64.20;;;;;;5105568;27;20258;-92
2023/03/24 01:38:38;;;;;;;44.20;6.83;;;18.60;64.30;;;;;;5088451;28;20313;-91
2023/03/24 01:41:07;;;;;;;37.67;5.70;;;18.60;64.20;;;;;;5090031;28;20214;-91
2023/03/24 01:43:35;;;;;;;40.53;6.10;;;18.60;64.20;;;;;;5090431;28;20302;-91
2023/03/24 01:46:13;;;;;;;29.97;5.53;;;18.60;64.20;;;;;;5091232;28;20202;-92
2023/03/24 01:48:45;;;;;;;27.23;5.17;;;18.60;64.20;;;;;;5089784;28;20202;-92
2023/03/24 01:51:17;;;;;;;41.13;6.63;;;18.60;64.20;;;;;;5074347;28;20209;-91
2023/03/24 01:53:49;;;;;;;38.37;6.43;;;18.60;64.20;;;;;;5089737;28;20260;-92
2023/03/24 01:56:19;;;;;;;51.07;7.00;;;18.50;64.20;;;;;;5089669;28;20202;-91
2023/03/24 01:58:50;;;;;;;36.37;6.10;;;18.50;64.10;;;;;;5087875;28;20221;-91
2023/03/24 02:01:17;;;;;;;42.83;6.43;;;18.50;64.10;;;;;;5089473;28;20223;-91
2023/03/24 02:03:49;;;;;;;48.47;7.03;;;18.50;64.10;;;;;;5088366;28;20227;-92
2023/03/24 02:06:17;;;;;;;35.73;6.57;;;18.50;64.10;;;;;;5089095;28;20260;-91
2023/03/24 02:08:51;;;;;;;37.23;6.37;;;18.50;64.20;;;;;;5089755;28;20199;-91
2023/03/24 02:11:20;;;;;;;36.50;6.23;;;18.50;64.10;;;;;;5086458;28;20206;-91
2023/03/24 02:13:47;;;;;;;38.97;6.33;;;18.50;64.10;;;;;;5089186;28;20702;-92
2023/03/24 02:16:40;;;;;;;35.50;5.53;;;18.50;64.20;;;;;;5089079;28;20648;-91
2023/03/24 02:19:57;;;;;;;32.37;5.67;;;18.50;64.10;;;;;;5084557;28;20222;-91
2023/03/24 02:23:08;;;;;;;36.30;6.30;;;18.40;64.10;;;;;;5084121;28;20210;-91
2023/03/24 02:26:09;;;;;;;35.93;6.50;;;18.40;64.00;;;;;;5088430;28;20295;-91
2023/03/24 02:28:47;;;;;;;33.43;5.53;;;18.50;64.10;;;;;;5076355;28;20734;-91
2023/03/24 02:31:34;;;;;;;38.10;6.23;;;18.40;64.00;;;;;;5086341;28;20209;-91
2023/03/24 02:34:43;;;;;;;31.80;5.57;;;18.40;64.00;;;;;;5081766;28;20208;-92
2023/03/24 02:37:44;;;;;;;42.97;6.43;;;18.40;64.00;;;;;;5086269;28;20210;-91
2023/03/24 02:40:22;;;;;;;33.70;5.87;;;18.40;64.00;;;;;;5070772;28;20308;-91
2023/03/24 02:43:12;;;;;;;37.67;6.10;;;18.30;63.90;;;;;;5088141;28;20308;-91
2023/03/24 02:45:46;;;;;;;38.37;6.37;;;18.30;63.90;;;;;;5090316;28;20289;-91
2023/03/24 02:48:24;;;;;;;39.20;6.17;;;18.30;63.90;;;;;;5090036;28;20704;-91
2023/03/24 02:50:58;;;;;;;34.57;5.87;;;18.30;63.90;;;;;;5088702;28;20195;-91
2023/03/24 02:53:32;;;;;;;43.90;6.30;;;18.30;63.90;;;;;;5088093;28;20232;-92
2023/03/24 02:56:09;;;;;;;34.30;5.63;;;18.30;64.00;;;;;;5089313;28;20259;-91
2023/03/24 02:58:47;;;;;;;45.60;6.77;;;18.30;63.90;;;;;;5090122;28;20191;-92
2023/03/24 03:01:17;;;;;;;35.80;6.00;;;18.30;63.90;;;;;;5090322;28;20695;-91
2023/03/24 03:03:50;;;;;;;37.70;6.03;;;18.20;63.80;;;;;;5088981;28;20263;-91
2023/03/24 03:06:22;;;;;;;33.67;5.93;;;18.20;63.80;;;;;;5090093;28;20677;-90
2023/03/24 03:08:51;;;;;;;39.93;6.10;;;18.20;63.80;;;;;;5088863;28;20204;-92
2023/03/24 03:11:20;;;;;;;29.60;5.57;;;18.20;63.80;;;;;;5089448;28;20424;-91
2023/03/24 03:13:52;;;;;;;30.90;5.43;;;18.20;63.80;;;;;;5088669;28;20198;-91
2023/03/24 03:16:24;;;;;;;49.37;7.40;;;18.20;63.80;;;;;;5080622;28;20206;-91
2023/03/24 03:18:55;;;;;;;50.43;7.43;;;18.20;63.80;;;;;;5085884;28;20206;-91
2023/03/24 03:21:24;;;;;;;33.80;5.80;;;18.20;63.80;;;;;;5088924;28;20260;-91
2023/03/24 03:23:55;;;;;;;40.07;6.33;;;18.20;63.80;;;;;;5087650;28;20265;-91
2023/03/24 03:26:27;;;;;;;47.17;6.63;;;18.20;63.80;;;;;;5088708;28;20214;-91
2023/03/24 03:28:58;;;;;;;57.10;7.67;;;18.20;63.80;;;;;;5086276;28;20739;-91
2023/03/24 03:31:30;;;;;;;46.57;7.10;;;18.20;63.80;;;;;;5089074;28;20303;-91
2023/03/24 03:34:08;;;;;;;41.17;6.63;;;18.20;63.80;;;;;;5086867;28;20202;-91
2023/03/24 03:36:41;;;;;;;43.60;6.90;;;18.10;63.70;;;;;;5088414;28;20851;-92
2023/03/24 03:39:14;;;;;;;40.73;6.80;;;18.20;63.80;;;;;;5088595;28;20209;-92
2023/03/24 03:41:43;;;;;;;42.07;6.60;;;18.10;63.70;;;;;;5088106;28;20207;-91
2023/03/24 03:44:11;;;;;;;28.07;5.33;;;18.10;63.70;;;;;;5085944;28;20668;-92
2023/03/24 03:46:38;;;;;;;31.00;5.77;;;18.10;63.70;;;;;;5088779;28;20209;-92
2023/03/24 03:49:07;;;;;;;49.83;7.63;;;18.10;63.70;;;;;;5087179;28;20397;-92
2023/03/24 03:51:35;;;;;;;39.60;6.67;;;18.10;63.70;;;;;;5089644;28;20245;-92
2023/03/24 03:54:06;;;;;;;44.77;6.77;;;18.10;63.70;;;;;;5087250;28;20199;-91
2023/03/24 03:56:35;;;;;;;35.40;6.07;;;18.10;63.70;;;;;;5088519;28;20256;-92
2023/03/24 03:59:05;;;;;;;29.67;5.47;;;18.00;63.60;;;;;;5087199;28;20241;-92
2023/03/24 04:01:35;;;;;;;24.20;5.03;;;18.00;63.60;;;;;;5089046;28;20198;-92
2023/03/24 04:04:20;;;;;;;35.80;5.80;;;18.00;63.60;;;;;;5088069;28;20227;-92
2023/03/24 04:07:00;;;;;;;39.47;6.93;;;18.00;63.60;;;;;;5088075;28;20194;-92
2023/03/24 04:09:38;;;;;;;27.87;5.07;;;18.00;63.60;;;;;;5072711;28;20251;-91
2023/03/24 04:12:35;;;;;;;28.70;5.30;;;18.00;63.60;;;;;;5087888;28;20296;-91
2023/03/24 04:15:26;;;;;;;28.63;5.67;;;18.00;63.60;;;;;;5072363;28;20301;-91
2023/03/24 04:18:16;;;;;;;28.90;5.63;;;18.00;63.60;;;;;;5088810;28;20720;-92
2023/03/24 04:20:48;;;;;;;56.87;7.77;;;18.00;63.60;;;;;;5078073;28;20710;-92
2023/03/24 04:23:26;;;;;;;48.27;7.27;;;18.00;63.60;;;;;;5080867;28;20316;-91
2023/03/24 04:26:04;;;;;;;32.07;5.90;;;18.00;63.60;;;;;;5088107;28;20233;-92
2023/03/24 04:28:39;;;;;;;53.20;7.73;;;17.90;63.50;;;;;;5086490;28;20562;-91
2023/03/24 04:31:17;;;;;;;75.63;9.17;;;17.90;63.50;;;;;;5085407;28;20226;-91
2023/03/24 04:33:50;;;;;;;50.87;7.90;;;17.90;63.50;;;;;;5084940;28;20212;-91
2023/03/24 04:36:26;;;;;;;36.00;6.60;;;17.90;63.50;;;;;;5069596;28;20207;-91
2023/03/24 04:38:57;;;;;;;45.03;7.30;;;17.90;63.50;;;;;;5083719;28;20657;-92
2023/03/24 04:41:26;;;;;;;41.80;6.27;;;17.90;63.50;;;;;;5086824;28;20334;-92
2023/03/24 04:43:56;;;;;;;44.80;6.87;;;17.90;63.50;;;;;;5088166;28;20232;-91
2023/03/24 04:46:27;;;;;;;44.03;6.80;;;17.90;63.50;;;;;;5094537;28;20210;-92
2023/03/24 04:48:55;;;;;;;37.00;6.40;;;17.90;63.50;;;;;;5094262;28;20295;-92
2023/03/24 04:51:22;;;;;;;45.47;7.00;;;17.90;63.50;;;;;;5089006;28;20288;-92
2023/03/24 04:53:49;;;;;;;47.77;6.73;;;17.80;63.40;;;;;;5088900;28;20209;-91
2023/03/24 04:56:30;;;;;;;45.00;6.77;;;17.90;63.50;;;;;;5088371;28;20205;-91
2023/03/24 04:58:57;;;;;;;40.03;6.30;;;17.90;63.50;;;;;;5088953;28;20282;-90
2023/03/24 05:01:29;;;;;;;38.40;6.23;;;17.80;63.40;;;;;;5088699;28;20725;-92
2023/03/24 05:03:56;;;;;;;32.50;6.07;;;17.80;63.40;;;;;;5089151;28;20233;-91
2023/03/24 05:06:23;;;;;;;34.57;6.47;;;17.80;63.40;;;;;;5089895;28;20204;-92
2023/03/24 05:08:51;;;;;;;34.53;6.40;;;17.80;63.40;;;;;;5092777;28;20618;-92
2023/03/24 05:11:19;;;;;;;55.00;7.67;;;17.80;63.40;;;;;;5089311;28;20771;-91
2023/03/24 05:13:46;;;;;;;35.77;6.10;;;17.80;63.40;;;;;;5092410;28;20198;-92
2023/03/24 05:16:14;;;;;;;31.60;5.40;;;17.80;63.40;;;;;;5088439;28;20213;-91
2023/03/24 05:18:43;;;;;;;26.70;5.83;;;17.80;63.40;;;;;;5091922;28;20225;-92
2023/03/24 05:21:16;;;;;;;44.67;6.77;;;17.80;63.40;;;;;;5091576;28;20214;-91
2023/03/24 05:23:43;;;;;;;29.20;5.30;;;17.80;63.40;;;;;;5091167;28;20579;-91
2023/03/24 05:26:10;;;;;;;21.43;4.83;;;17.80;63.40;;;;;;5091515;28;20305;-91
2023/03/24 05:28:37;;;;;;;47.27;6.77;;;17.80;63.40;;;;;;5090201;28;20295;-92
2023/03/24 05:31:04;;;;;;;30.57;5.70;;;17.80;64.10;;;;;;5091457;28;20206;-91
2023/03/24 05:33:31;;;;;;;26.27;5.50;;;17.80;63.40;;;;;;5092297;28;20206;-91
2023/03/24 05:36:00;;;;;;;31.90;5.87;;;17.80;63.40;;;;;;5089821;28;20225;-92
2023/03/24 05:38:26;;;;;;;31.50;6.00;;;17.80;63.40;;;;;;5091304;28;20562;-91
2023/03/24 05:40:57;;;;;;;31.90;6.10;;;17.80;63.40;;;;;;5080079;28;20213;-91
2023/03/24 05:43:24;;;;;;;44.80;6.23;;;17.80;63.40;;;;;;5090521;28;20328;-91
2023/03/24 05:45:51;;;;;;;29.63;6.17;;;17.80;63.40;;;;;;5091295;28;20209;-92
2023/03/24 05:48:18;;;;;;;32.47;6.33;;;17.80;63.40;;;;;;5088632;28;20198;-91
2023/03/24 05:50:48;;;;;;;42.53;7.13;;;17.80;63.40;;;;;;5090541;28;20209;-92
2023/03/24 05:53:16;;;;;;;57.13;7.60;;;17.80;63.40;;;;;;5090209;28;20203;-91
2023/03/24 05:55:45;;;;;;;34.13;6.33;;;17.70;63.20;;;;;;5075922;28;20208;-92
2023/03/24 05:58:12;;;;;;;25.67;5.73;;;17.70;63.30;;;;;;5090317;28;20199;-92
2023/03/24 06:00:39;;;;;;;30.37;5.50;;;17.90;63.50;;;;;;5086828;28;20252;-92
2023/03/24 06:03:06;;;;;;;29.20;5.53;;;17.80;63.40;;;;;;5088485;28;20207;-92
2023/03/24 06:05:33;;;;;;;40.07;6.63;;;17.80;63.40;;;;;;5091201;28;20245;-91
2023/03/24 06:08:00;;;;;;;38.33;6.03;;;17.70;63.20;;;;;;5090803;28;20656;-91
2023/03/24 06:10:29;;;;;;;55.70;8.00;;;17.70;63.20;;;;;;5085130;28;20563;-92
2023/03/24 06:13:02;;;;;;;25.43;5.53;;;17.70;63.20;;;;;;5084990;28;20561;-91
2023/03/24 06:15:29;;;;;;;47.80;7.40;;;17.70;63.20;;;;;;5089013;28;20209;-92
2023/03/24 06:17:56;;;;;;;43.53;7.00;;;17.70;63.20;;;;;;5088290;28;20291;-91
2023/03/24 06:20:23;;;;;;;41.40;6.33;;;17.70;63.20;;;;;;5090745;28;20215;-92
2023/03/24 06:22:50;;;;;;;28.13;5.43;;;17.70;63.30;;;;;;5091343;28;20212;-92
2023/03/24 06:25:20;;;;;;;40.40;6.53;;;17.70;63.20;;;;;;5089760;28;20239;-92
2023/03/24 06:27:50;;;;;;;26.80;5.73;;;17.70;63.20;;;;;;5091748;28;20201;-92
2023/03/24 06:30:19;;;;;;;30.57;5.83;;;17.70;63.20;;;;;;5091059;28;20289;-92
2023/03/24 06:32:46;;;;;;;30.57;5.80;;;17.60;63.10;;;;;;5089548;28;20282;-91
2023/03/24 06:35:14;;;;;;;41.87;6.40;;;17.70;63.30;;;;;;5091136;28;20190;-91
2023/03/24 06:37:41;;;;;;;38.40;6.53;;;17.60;63.10;;;;;;5091095;28;20224;-92
2023/03/24 06:40:12;;;;;;;30.97;6.07;;;17.70;63.20;;;;;;5088864;28;20646;-92
2023/03/24 06:42:39;;;;;;;30.33;6.27;;;17.60;63.20;;;;;;5088425;28;20233;-91
2023/03/24 06:45:11;;;;;;;37.17;6.30;;;17.70;63.20;;;;;;5089255;28;20229;-91
2023/03/24 06:47:38;;;;;;;28.10;5.57;;;17.60;63.10;;;;;;5090580;28;20209;-92
2023/03/24 06:50:07;;;;;;;27.93;6.23;;;17.70;63.20;;;;;;5090004;28;20199;-92
2023/03/24 06:52:34;;;;;;;19.93;4.90;;;17.70;63.30;;;;;;5088928;28;20661;-91
2023/03/24 06:55:01;;;;;;;35.03;6.23;;;17.60;63.20;;;;;;5090219;28;20296;-92
2023/03/24 06:57:28;;;;;;;58.77;8.50;;;17.60;63.10;;;;;;5085778;28;20203;-92
2023/03/24 06:59:55;;;;;;;40.03;6.57;;;17.60;63.10;;;;;;5089484;28;20225;-92
2023/03/24 07:02:24;;;;;;;27.57;5.67;;;17.50;63.00;;;;;;5090313;28;20206;-92
2023/03/24 07:04:52;;;;;;;52.87;7.93;;;17.60;63.10;;;;;;5087759;28;20225;-92
2023/03/24 07:07:21;;;;;;;45.20;7.20;;;17.60;63.20;;;;;;5085271;28;20725;-93
2023/03/24 07:09:49;;;;;;;40.17;6.77;;;17.60;63.10;;;;;;5088044;28;20661;-92
2023/03/24 07:12:16;;;;;;;45.63;6.80;;;17.60;63.20;;;;;;5089925;28;20205;-92
2023/03/24 07:14:49;;;;;;;32.73;6.20;;;17.60;63.20;;;;;;5090422;28;20206;-93
2023/03/24 07:17:16;;;;;;;38.00;6.63;;;17.60;63.20;;;;;;5087699;28;20232;-94
2023/03/24 07:19:45;;;;;;;39.03;6.50;;;17.60;63.20;;;;;;5090275;28;20203;-94
2023/03/24 07:22:12;;;;;;;42.47;6.70;;;17.60;63.10;;;;;;5088434;28;20802;-95
2023/03/24 07:24:39;;;;;;;43.03;6.90;;;17.60;63.20;;;;;;5088266;28;20685;-95
2023/03/24 07:27:06;;;;;;;45.87;7.03;;;17.60;63.20;;;;;;5089565;28;20278;-94
2023/03/24 07:29:35;;;;;;;36.33;6.43;;;17.50;63.10;;;;;;5089196;28;20206;-94
2023/03/24 07:32:03;;;;;;;37.13;6.37;;;17.60;63.20;;;;;;5089729;28;20233;-94
2023/03/24 07:34:31;;;;;;;43.93;7.27;;;17.60;63.20;;;;;;5088848;28;20205;-94
2023/03/24 07:37:10;;;;;;;41.87;6.87;;;17.70;63.20;;;;;;5089109;28;20201;-93
2023/03/24 07:39:42;;;;;;;37.57;6.33;;;17.60;63.10;;;;;;5089887;28;20263;-94
2023/03/24 07:42:15;;;;;;;44.13;7.03;;;17.60;64.00;;;;;;5087321;28;20201;-93
2023/03/24 07:44:42;;;;;;;62.27;8.37;;;17.60;63.10;;;;;;5087886;28;20257;-93
2023/03/24 07:47:10;;;;;;;35.10;6.13;;;17.60;63.20;;;;;;5087851;28;20210;-94
2023/03/24 07:49:37;;;;;;;45.80;7.00;;;17.60;63.20;;;;;;5086430;28;20209;-91
2023/03/24 07:52:07;;;;;;;57.67;7.97;;;17.50;63.10;;;;;;5083902;28;20216;-92
2023/03/24 07:54:34;;;;;;;50.03;7.57;;;17.50;63.10;;;;;;5086680;28;20202;-91
2023/03/24 07:57:02;;;;;;;42.57;6.77;;;17.60;63.20;;;;;;5086958;28;20735;-91
2023/03/24 07:59:29;;;;;;;44.47;6.77;;;17.60;63.20;;;;;;5086727;28;20265;-92
2023/03/24 08:01:56;;;;;;;44.70;7.13;;;17.60;63.20;;;;;;5084798;28;20254;-92
2023/03/24 08:04:23;;;;;;;44.03;6.87;;;17.60;63.20;;;;;;5081921;28;20603;-91
2023/03/24 08:06:51;;;;;;;44.17;7.33;;;17.60;63.20;;;;;;5087029;28;20202;-91
2023/03/24 08:09:22;;;;;;;64.13;8.50;;;17.60;63.20;;;;;;5086019;28;20627;-90
2023/03/24 08:11:49;;;;;;;32.37;5.87;;;17.60;63.20;;;;;;5082304;28;20206;-93
2023/03/24 08:14:16;;;;;;;39.67;6.93;;;17.60;63.20;;;;;;5088847;28;20210;-91
2023/03/24 08:16:45;;;;;;;42.80;7.60;;;17.60;63.20;;;;;;5087931;28;20307;-94
2023/03/24 08:19:12;;;;;;;44.10;7.13;;;17.60;63.20;;;;;;5089147;28;20600;-92
2023/03/24 08:21:39;;;;;;;41.20;6.50;;;17.60;63.20;;;;;;5090252;28;21007;-91
2023/03/24 08:24:07;;;;;;;35.13;6.43;;;17.60;63.20;;;;;;5088723;28;20205;-93
2023/03/24 08:26:35;;;;;;;45.67;7.10;;;17.60;63.20;;;;;;5089679;28;20221;-93
2023/03/24 08:29:06;;;;;;;43.17;6.80;;;17.60;63.20;;;;;;5076559;28;20642;-92
2023/03/24 08:31:34;;;;;;;41.37;7.23;;;17.60;63.40;;;;;;5088931;28;20267;-92
2023/03/24 08:34:01;;;;;;;46.10;7.27;;;17.60;63.20;;;;;;5088893;28;20609;-93
2023/03/24 08:36:28;;;;;;;59.27;8.60;;;17.60;63.20;;;;;;5089304;28;20259;-93
2023/03/24 08:38:56;;;;;;;36.00;6.83;;;17.60;63.20;;;;;;5089981;28;20209;-94
2023/03/24 08:41:29;;;;;;;33.50;6.73;;;17.70;64.00;;;;;;5092115;28;20676;-95
2023/03/24 08:43:59;;;;;;;43.80;7.40;;;17.60;63.20;;;;;;5096006;28;20267;-94
2023/03/24 08:46:27;;;;;;;42.30;7.27;;;17.60;63.20;;;;;;5076242;28;20601;-95
2023/03/24 08:48:56;;;;;;;38.47;6.70;;;17.60;63.10;;;;;;5097621;28;20294;-94
2023/03/24 08:51:25;;;;;;;45.77;7.23;;;17.60;63.10;;;;;;5096544;28;20681;-95
2023/03/24 08:53:52;;;;;;;40.87;7.30;;;17.60;63.10;;;;;;5096658;28;20578;-95
2023/03/24 08:56:20;;;;;;;35.03;6.80;;;17.60;63.20;;;;;;5096367;28;20224;-95
2023/03/24 08:58:50;;;;;;;36.53;6.93;;;17.60;63.10;;;;;;5098803;28;20209;-95
2023/03/24 09:01:19;;;;;;;40.00;6.73;;;17.60;63.10;;;;;;5094910;28;20259;-93
2023/03/24 09:03:47;;;;;;;46.67;7.40;;;17.60;63.10;;;;;;5085252;28;20678;-96
2023/03/24 09:06:16;;;;;;;36.80;6.53;;;17.60;63.20;;;;;;5092513;28;20307;-95
2023/03/24 09:08:43;;;;;;;37.10;6.43;;;17.60;63.20;;;;;;5094043;28;20238;-94
2023/03/24 09:11:15;;;;;;;71.10;9.47;;;17.60;63.10;;;;;;5092412;28;20281;-95
2023/03/24 09:13:43;;;;;;;41.17;7.50;;;17.60;63.10;;;;;;5094149;28;20234;-95
2023/03/24 09:16:10;;;;;;;43.80;7.03;;;17.60;63.20;;;;;;5094952;28;20207;-91
2023/03/24 09:18:41;;;;;;;46.07;7.63;;;17.60;63.20;;;;;;5092039;28;20238;-88
2023/03/24 09:21:09;;;;;;;71.90;9.60;;;17.60;63.10;;;;;;5078745;28;20217;-89
2023/03/24 09:23:36;;;;;;;49.87;8.30;;;17.60;63.20;;;;;;5089043;28;20280;-89
2023/03/24 09:26:04;;;;;;;37.33;6.73;;;17.60;63.20;;;;;;5092447;28;20233;-90
2023/03/24 09:28:31;;;;;;;46.33;7.17;;;17.60;63.20;;;;;;5074475;28;20203;-91
2023/03/24 09:31:16;;;;;;;40.50;6.37;;;17.60;63.20;;;;;;5087195;28;20206;-95
2023/03/24 09:37:31;;;;;;;44.70;6.43;;;17.60;63.20;;;;;;5100095;28;20442;-96
2023/03/24 09:40:35;;;;;;;37.27;6.03;;;17.60;63.20;;;;;;5099684;28;20260;-96
2023/03/24 09:43:16;;;;;;;47.83;7.17;;;17.70;63.30;;;;;;5092792;28;20216;-96
2023/03/24 09:45:50;;;;;;;33.80;6.57;;;17.50;63.00;;;;;;5092406;28;20252;-95
2023/03/24 09:48:42;;;;;;;;;;;;;;;;;;;;;
2023/03/24 09:58:07;;;;;;;35.20;5.83;;;17.70;63.40;;;;;;5060676;28;20959;-96
2023/03/24 10:04:16;;;;;;;43.83;6.97;;;17.80;63.60;;;;;;5099055;22;20253;-96
2023/03/24 10:06:45;;;;;;;62.30;8.10;;;17.70;63.40;;;;;;5068448;28;20261;-94
2023/03/24 10:09:23;;;;;;;53.23;8.07;;;17.70;63.40;;;;;;5082664;28;20294;-92
2023/03/24 10:12:04;;;;;;;54.10;7.67;;;17.70;63.50;;;;;;5083960;28;20298;-96
2023/03/24 10:14:54;;;;;;;59.33;7.47;;;17.70;63.40;;;;;;5057867;28;20229;-96
2023/03/24 10:17:35;;;;;;;46.77;7.17;;;17.80;63.60;;;;;;5058810;28;20316;-96
2023/03/24 10:20:24;;;;;;;42.67;6.63;;;17.70;63.50;;;;;;5073602;28;20207;-96
2023/03/24 10:23:01;;;;;;;33.73;6.10;;;17.80;63.50;;;;;;5070283;28;20307;-94
2023/03/24 10:25:42;;;;;;;37.60;5.97;;;17.80;63.60;;;;;;5079983;28;20227;-92
2023/03/24 10:28:16;;;;;;;39.63;6.33;;;17.80;63.60;;;;;;5069776;28;20745;-92
2023/03/24 10:30:46;;;;;;;49.57;7.17;;;17.80;63.60;;;;;;5071652;28;20223;-92
2023/03/24 10:33:14;;;;;;;41.63;6.53;;;17.80;63.60;;;;;;5068361;28;20551;-94
2023/03/24 10:35:51;;;;;;;41.63;6.60;;;17.80;63.60;;;;;;5076092;28;20229;-92
2023/03/24 10:38:19;;;;;;;54.83;7.53;;;17.90;63.80;;;;;;5055037;28;20204;-92
2023/03/24 10:40:47;;;;;;;36.40;5.97;;;17.90;63.80;;;;;;5064727;28;20211;-94
2023/03/24 10:43:17;;;;;;;34.37;6.30;;;17.90;63.80;;;;;;5068566;28;20226;-91
2023/03/24 10:45:49;;;;;;;31.57;5.30;;;17.90;63.80;;;;;;5071854;28;20301;-94
2023/03/24 10:48:35;;;;;;;51.37;7.47;;;17.90;63.80;;;;;;5091547;28;20278;-95
2023/03/24 10:51:05;;;;;;;57.20;7.67;;;17.90;63.90;;;;;;5072154;28;20556;-87
2023/03/24 10:53:32;;;;;;;83.37;9.73;;;17.90;63.60;;;;;;5088032;28;20238;-85
2023/03/24 10:56:00;;;;;;;38.60;5.97;;;18.00;63.60;;;;;;5073487;28;20630;-86
2023/03/24 10:58:38;;;;;;;56.03;7.50;;;17.90;63.50;;;;;;5074749;28;20202;-85
2023/03/24 11:01:21;;;;;;;54.67;8.33;;;18.00;63.60;;;;;;5057032;28;20203;-85
2023/03/24 11:03:58;;;;;;;60.33;8.40;;;18.00;63.60;;;;;;5068291;28;20210;-85
2023/03/24 11:06:26;;;;;;;38.40;6.37;;;18.00;63.60;;;;;;5070066;28;20234;-85
2023/03/24 11:09:09;;;;;;;62.90;8.47;;;18.00;63.60;;;;;;5076285;28;20580;-87
2023/03/24 11:11:39;;;;;;;45.47;6.53;;;18.10;63.70;;;;;;5072963;28;20211;-89
2023/03/24 11:14:21;;;;;;;36.80;5.90;;;18.00;63.60;;;;;;5082021;28;20214;-88
2023/03/24 11:16:49;;;;;;;53.27;7.57;;;18.00;63.60;;;;;;5064560;28;20272;-89
2023/03/24 11:19:21;;;;;;;35.07;6.17;;;18.10;63.70;;;;;;5060485;28;20208;-87
2023/03/24 11:21:52;;;;;;;40.37;6.53;;;18.00;63.60;;;;;;5050858;28;20211;-87
2023/03/24 11:24:20;;;;;;;44.70;6.80;;;18.10;63.70;;;;;;5058267;28;20225;-86
2023/03/24 11:26:57;;;;;;;36.50;5.90;;;18.10;63.70;;;;;;5068585;28;20220;-89
2023/03/24 11:29:29;;;;;;;35.30;6.60;;;18.10;63.70;;;;;;5068783;28;20211;-89
2023/03/24 11:32:02;;;;;;;42.57;7.20;;;18.10;63.70;;;;;;5072580;28;20306;-87
2023/03/24 11:34:37;;;;;;;33.43;6.13;;;18.20;63.80;;;;;;5071516;28;20232;-88
2023/03/24 11:37:10;;;;;;;30.23;5.63;;;18.10;63.70;;;;;;5064591;28;20203;-88
2023/03/24 11:39:38;;;;;;;23.23;5.03;;;18.10;63.70;;;;;;5061482;28;20203;-88
2023/03/24 11:42:15;;;;;;;28.30;5.77;;;18.20;63.80;;;;;;5063043;28;20662;-88
2023/03/24 11:44:51;;;;;;;34.30;6.17;;;18.20;63.80;;;;;;5079406;28;20290;-88
2023/03/24 11:47:23;;;;;;;32.67;6.40;;;18.20;63.80;;;;;;5061279;28;20272;-88
2023/03/24 11:49:58;;;;;;;30.07;5.93;;;18.20;63.80;;;;;;5070126;28;20310;-88
2023/03/24 11:52:32;;;;;;;35.87;6.10;;;18.20;63.80;;;;;;5076829;28;20266;-88
2023/03/24 11:55:01;;;;;;;37.73;6.10;;;18.20;63.80;;;;;;5077269;28;20218;-89
2023/03/24 11:57:45;;;;;;;45.57;6.83;;;18.20;63.80;;;;;;5084107;28;20203;-88
2023/03/24 12:00:21;;;;;;;30.80;5.47;;;18.20;63.80;;;;;;5083828;28;20194;-91
2023/03/24 12:03:16;;;;;;;43.00;6.67;;;18.30;63.90;;;;;;5083066;28;20216;-90
2023/03/24 12:05:56;;;;;;;34.40;5.87;;;18.20;63.80;;;;;;5102535;28;20313;-91
2023/03/24 12:08:46;;;;;;;32.23;6.13;;;18.30;63.90;;;;;;5086896;28;20215;-91
2023/03/24 12:11:20;;;;;;;50.10;6.90;;;18.30;63.90;;;;;;5069973;28;20187;-91
2023/03/24 12:13:50;;;;;;;30.03;5.53;;;18.20;63.80;;;;;;5087240;28;20223;-91
2023/03/24 12:16:37;;;;;;;21.77;4.90;;;18.30;63.90;;;;;;5064634;28;20254;-90
2023/03/24 12:19:44;;;;;;;36.90;6.20;;;18.30;63.90;;;;;;5072249;28;20202;-91
2023/03/24 12:22:22;;;;;;;48.20;7.30;;;18.30;63.90;;;;;;5066465;28;20211;-88
2023/03/24 12:25:08;;;;;;;38.63;5.97;;;18.30;64.00;;;;;;5069308;28;20201;-88
2023/03/24 12:27:46;;;;;;;32.80;5.57;;;18.30;63.90;;;;;;5068869;28;20233;-89
2023/03/24 12:30:19;;;;;;;39.30;6.43;;;18.30;63.90;;;;;;5069490;28;20195;-88
2023/03/24 12:33:00;;;;;;;24.50;5.17;;;18.30;64.00;;;;;;5079113;28;20230;-93
2023/03/24 12:36:00;;;;;;;27.47;5.33;;;18.30;63.90;;;;;;5077091;28;20214;-94
2023/03/24 12:38:40;;;;;;;40.93;6.93;;;18.40;64.00;;;;;;5072641;28;20648;-89
2023/03/24 12:41:48;;;;;;;40.90;7.17;;;18.40;64.00;;;;;;5069261;28;20201;-91
2023/03/24 12:44:43;;;;;;;55.50;8.07;;;18.30;63.90;;;;;;5052234;28;20762;-91
2023/03/24 12:47:26;;;;;;;35.27;6.73;;;18.40;64.00;;;;;;5067634;28;20338;-92
2023/03/24 12:50:11;;;;;;;39.50;7.03;;;18.40;64.80;;;;;;5068563;28;20625;-90
2023/03/24 12:52:56;;;;;;;37.40;6.40;;;18.40;64.00;;;;;;5068181;28;20714;-91
2023/03/24 12:55:31;;;;;;;35.63;6.00;;;18.40;64.00;;;;;;5066375;28;20200;-91
2023/03/24 12:58:04;;;;;;;41.20;6.87;;;18.30;63.60;;;;;;5068997;28;20229;-89
2023/03/24 13:00:36;;;;;;;33.53;5.87;;;18.40;63.60;;;;;;5067753;28;20338;-89
2023/03/24 13:03:09;;;;;;;45.30;6.83;;;18.40;63.50;;;;;;5070277;28;20224;-91
2023/03/24 13:05:42;;;;;;;26.93;5.60;;;18.40;63.50;;;;;;5079938;28;20214;-88
2023/03/24 13:08:29;;;;;;;36.43;6.40;;;18.40;63.50;;;;;;5072518;28;20208;-94
2023/03/24 13:11:01;;;;;;;30.00;5.83;;;18.40;63.40;;;;;;5070950;28;20216;-89
2023/03/24 13:13:32;;;;;;;43.37;7.07;;;18.40;63.40;;;;;;5073487;28;20209;-89
2023/03/24 13:16:04;;;;;;;29.83;6.30;;;18.40;63.50;;;;;;5070037;28;20705;-92
2023/03/24 13:18:37;;;;;;;31.43;5.43;;;18.40;63.50;;;;;;5050486;28;20298;-93
2023/03/24 13:21:10;;;;;;;60.47;8.00;;;18.40;63.50;;;;;;5056603;28;20203;-94